Time;durP1;ratioP1;P1;durP2;ratioP2;P2;SDS_P1;SDS_P2;PMS_P1;PMS_P2;Temp;Humidity;BMP_temperature;BMP_pressure;BME280_temperature;BME280_humidity;BME280_pressure;Samples;Min_cycle;Max_cycle;Signal;HPM_P1;HPM_P2
2022/05/15 00:01:33;;;;;;;10.80;3.58;;;11.30;99.90;;;;;;5054136;28;20131;-90
2022/05/15 00:03:59;;;;;;;10.93;2.95;;;11.20;99.90;;;;;;5053373;28;20066;-90
2022/05/15 00:06:25;;;;;;;10.88;3.05;;;11.10;99.90;;;;;;5038328;28;20040;-90
2022/05/15 00:08:51;;;;;;;14.38;3.92;;;11.10;99.90;;;;;;5037502;28;20537;-90
2022/05/15 00:11:17;;;;;;;14.73;4.25;;;11.00;99.90;;;;;;5036520;28;20044;-90
2022/05/15 00:13:43;;;;;;;21.58;4.70;;;10.90;99.90;;;;;;5037368;28;20075;-90
2022/05/15 00:16:09;;;;;;;20.27;6.75;;;10.90;99.90;;;;;;5041615;28;20044;-90
2022/05/15 00:18:35;;;;;;;16.95;4.45;;;10.90;99.90;;;;;;5037594;28;20139;-90
2022/05/15 00:21:01;;;;;;;15.48;4.28;;;11.00;99.90;;;;;;5053433;28;20041;-90
2022/05/15 00:23:27;;;;;;;22.73;5.35;;;11.00;99.90;;;;;;5053770;28;20041;-90
2022/05/15 00:25:53;;;;;;;18.38;4.97;;;11.00;99.90;;;;;;5054543;28;20032;-90
2022/05/15 00:28:18;;;;;;;19.17;4.10;;;11.00;99.90;;;;;;5052988;28;20071;-91
2022/05/15 00:30:44;;;;;;;20.23;4.38;;;11.00;99.90;;;;;;5053989;28;20414;-90
2022/05/15 00:33:10;;;;;;;22.40;4.85;;;11.00;99.90;;;;;;5063107;28;20024;-90
2022/05/15 00:35:37;;;;;;;19.52;4.28;;;11.10;99.90;;;;;;5072620;28;20029;-90
2022/05/15 00:38:08;;;;;;;18.58;4.80;;;11.10;99.90;;;;;;5054538;28;20155;-90
2022/05/15 00:40:37;;;;;;;15.20;4.45;;;11.00;99.90;;;;;;5078475;28;20035;-91
2022/05/15 00:43:02;;;;;;;17.65;4.15;;;11.10;99.90;;;;;;5049705;28;20044;-91
2022/05/15 00:45:28;;;;;;;19.95;4.85;;;11.00;99.90;;;;;;5046702;28;20123;-90
2022/05/15 00:47:54;;;;;;;17.83;4.53;;;11.10;99.90;;;;;;5047697;28;20036;-91
2022/05/15 00:50:29;;;;;;;21.27;4.32;;;11.10;99.90;;;;;;5037866;28;20040;-90
2022/05/15 00:53:00;;;;;;;20.92;5.43;;;11.10;99.90;;;;;;5053438;28;20131;-90
2022/05/15 00:55:35;;;;;;;18.15;4.40;;;11.10;99.90;;;;;;5052924;28;20489;-91
2022/05/15 00:58:07;;;;;;;24.77;5.10;;;11.10;99.90;;;;;;5054056;28;20581;-90
2022/05/15 01:00:35;;;;;;;19.80;4.70;;;11.10;99.90;;;;;;5052054;28;20059;-91
2022/05/15 01:03:10;;;;;;;18.10;4.55;;;11.10;99.90;;;;;;5053374;28;20097;-90
2022/05/15 01:05:39;;;;;;;18.23;4.38;;;11.10;99.90;;;;;;5036797;28;20036;-90
2022/05/15 01:08:04;;;;;;;17.88;4.95;;;11.10;99.90;;;;;;5053675;28;20413;-90
2022/05/15 01:10:31;;;;;;;17.58;4.82;;;11.10;99.90;;;;;;5053340;28;20067;-90
2022/05/15 01:12:58;;;;;;;19.48;4.55;;;11.10;99.90;;;;;;5052506;28;20044;-91
2022/05/15 01:15:26;;;;;;;22.00;5.05;;;11.10;99.90;;;;;;5053034;28;20119;-90
2022/05/15 01:17:53;;;;;;;15.32;4.55;;;11.10;99.90;;;;;;5035662;28;20048;-90
2022/05/15 01:20:23;;;;;;;21.85;5.05;;;11.10;99.90;;;;;;5036624;28;20043;-90
2022/05/15 01:22:49;;;;;;;19.65;4.90;;;11.10;99.90;;;;;;5051908;28;20037;-90
2022/05/15 01:25:22;;;;;;;20.70;6.35;;;11.20;99.90;;;;;;5053215;28;20048;-90
2022/05/15 01:27:52;;;;;;;21.55;5.65;;;11.10;99.90;;;;;;5053206;28;20028;-90
2022/05/15 01:30:18;;;;;;;22.02;5.60;;;11.20;99.90;;;;;;5036720;28;20033;-90
2022/05/15 01:32:44;;;;;;;18.65;5.15;;;11.20;99.90;;;;;;5052982;28;20202;-89
2022/05/15 01:35:10;;;;;;;22.83;8.05;;;11.10;99.90;;;;;;5035258;28;20033;-90
2022/05/15 01:37:35;;;;;;;19.45;5.75;;;11.20;99.90;;;;;;5053046;28;20056;-90
2022/05/15 01:40:03;;;;;;;21.90;5.13;;;11.30;99.90;;;;;;5035451;28;20079;-90
2022/05/15 01:42:29;;;;;;;16.45;4.60;;;11.20;99.90;;;;;;5052836;28;20572;-90
2022/05/15 01:44:55;;;;;;;18.23;5.07;;;11.20;99.90;;;;;;5052848;28;20640;-90
2022/05/15 01:47:20;;;;;;;20.38;5.10;;;11.10;99.90;;;;;;5053340;28;20490;-89
2022/05/15 01:49:46;;;;;;;18.10;5.28;;;11.00;99.90;;;;;;5053332;28;20078;-90
2022/05/15 01:52:11;;;;;;;17.10;4.82;;;11.00;99.90;;;;;;5039887;28;20040;-90
2022/05/15 01:54:38;;;;;;;21.90;5.50;;;10.90;99.90;;;;;;5040106;28;20093;-90
2022/05/15 01:57:04;;;;;;;18.20;5.25;;;10.90;99.90;;;;;;5056122;28;20032;-90
2022/05/15 01:59:30;;;;;;;15.63;4.68;;;10.90;99.90;;;;;;5040568;28;20083;-90
2022/05/15 02:01:55;;;;;;;17.73;4.40;;;10.90;99.90;;;;;;5055756;28;20076;-90
2022/05/15 02:04:21;;;;;;;17.55;5.45;;;10.80;99.90;;;;;;5056908;28;20460;-90
2022/05/15 02:06:47;;;;;;;20.25;5.40;;;10.80;99.90;;;;;;5057056;28;20448;-90
2022/05/15 02:09:12;;;;;;;16.08;5.13;;;10.70;99.90;;;;;;5056219;28;20033;-90
2022/05/15 02:11:38;;;;;;;18.65;5.20;;;10.70;99.90;;;;;;5056872;28;20401;-90
2022/05/15 02:14:04;;;;;;;18.20;4.88;;;10.60;99.90;;;;;;5038671;28;20096;-90
2022/05/15 02:16:31;;;;;;;21.92;5.20;;;10.60;99.90;;;;;;5039809;28;20082;-89
2022/05/15 02:18:57;;;;;;;17.60;4.32;;;10.60;99.90;;;;;;5054579;28;20106;-89
2022/05/15 02:21:22;;;;;;;19.63;4.82;;;10.50;99.90;;;;;;5055667;28;20501;-90
2022/05/15 02:23:48;;;;;;;20.10;5.55;;;10.50;99.90;;;;;;5055347;28;20033;-90
2022/05/15 02:26:14;;;;;;;20.13;5.50;;;10.50;99.90;;;;;;5055727;28;20358;-90
2022/05/15 02:28:39;;;;;;;20.70;5.50;;;10.50;99.90;;;;;;5039676;28;20059;-89
2022/05/15 02:31:06;;;;;;;18.70;4.30;;;10.40;99.90;;;;;;5055217;28;20402;-90
2022/05/15 02:33:32;;;;;;;23.70;5.13;;;10.40;99.90;;;;;;5055579;28;20112;-90
2022/05/15 02:35:58;;;;;;;21.52;5.55;;;10.40;99.90;;;;;;5054996;28;20512;-90
2022/05/15 02:38:24;;;;;;;19.10;5.53;;;10.40;99.90;;;;;;5055739;28;20553;-90
2022/05/15 02:40:50;;;;;;;16.45;4.55;;;10.40;99.90;;;;;;5038706;28;20048;-90
2022/05/15 02:43:16;;;;;;;22.58;6.03;;;10.40;99.90;;;;;;5038686;28;20513;-90
2022/05/15 02:45:41;;;;;;;19.52;5.07;;;10.40;99.90;;;;;;5055951;28;20490;-90
2022/05/15 02:51:03;;;;;;;16.60;4.57;;;10.50;99.90;;;;;;5055001;28;20446;-90
2022/05/15 02:51:04;;;;;;;21.05;5.35;;;10.50;99.90;;;;;;5055797;28;20044;-90
2022/05/15 02:53:39;;;;;;;19.65;4.85;;;10.50;99.90;;;;;;5054514;28;20068;-90
2022/05/15 02:56:12;;;;;;;21.35;5.78;;;10.50;99.90;;;;;;5055278;28;20135;-90
2022/05/15 02:58:38;;;;;;;21.42;5.75;;;10.50;99.90;;;;;;5055670;28;20040;-90
2022/05/15 03:01:04;;;;;;;19.83;5.28;;;10.50;99.90;;;;;;5054371;28;20044;-90
2022/05/15 03:03:30;;;;;;;19.80;5.75;;;10.50;99.90;;;;;;5055538;28;20033;-90
2022/05/15 03:05:56;;;;;;;16.85;5.45;;;10.50;99.90;;;;;;5055766;28;20094;-90
2022/05/15 03:08:22;;;;;;;16.60;4.95;;;10.50;99.90;;;;;;5038994;28;20033;-90
2022/05/15 03:10:48;;;;;;;19.30;5.25;;;10.50;99.90;;;;;;5056079;28;20040;-90
2022/05/15 03:13:13;;;;;;;20.05;5.45;;;10.50;99.90;;;;;;5054978;28;20185;-90
2022/05/15 03:15:39;;;;;;;19.42;5.30;;;10.50;99.90;;;;;;5039063;28;20559;-90
2022/05/15 03:18:05;;;;;;;19.95;6.35;;;10.50;99.90;;;;;;5038748;28;20051;-90
2022/05/15 03:20:31;;;;;;;16.92;4.93;;;10.50;99.90;;;;;;5054194;28;20041;-90
2022/05/15 03:22:58;;;;;;;21.52;5.78;;;10.50;99.90;;;;;;5055510;28;20059;-90
2022/05/15 03:25:26;;;;;;;15.98;5.47;;;10.50;99.90;;;;;;5055194;28;20029;-90
2022/05/15 03:27:52;;;;;;;21.02;5.53;;;10.50;99.90;;;;;;5039060;28;20391;-90
2022/05/15 03:30:18;;;;;;;20.98;6.05;;;10.50;99.90;;;;;;5054740;28;20032;-91
2022/05/15 03:32:44;;;;;;;16.15;5.40;;;10.50;99.90;;;;;;5055371;28;20067;-90
2022/05/15 03:35:11;;;;;;;24.58;5.68;;;10.50;99.90;;;;;;5038735;28;20513;-90
2022/05/15 03:37:37;;;;;;;18.02;5.60;;;10.50;99.90;;;;;;5054135;28;20387;-90
2022/05/15 03:40:05;;;;;;;19.77;5.38;;;10.40;99.90;;;;;;5055151;28;20040;-90
2022/05/15 03:42:31;;;;;;;19.08;5.40;;;10.40;99.90;;;;;;5037848;28;20040;-90
2022/05/15 03:44:57;;;;;;;22.45;5.63;;;10.40;99.90;;;;;;5053804;28;20090;-90
2022/05/15 03:47:23;;;;;;;18.90;5.35;;;10.40;99.90;;;;;;5038598;28;20048;-90
2022/05/15 03:49:48;;;;;;;21.38;5.38;;;10.40;99.90;;;;;;5054314;28;20033;-90
2022/05/15 03:52:16;;;;;;;18.50;5.32;;;10.50;99.90;;;;;;5054612;28;20044;-91
2022/05/15 03:54:42;;;;;;;20.80;5.38;;;10.50;99.90;;;;;;5054424;28;20458;-90
2022/05/15 03:57:07;;;;;;;21.08;6.38;;;10.40;99.90;;;;;;5053204;28;20049;-90
2022/05/15 03:59:36;;;;;;;20.98;5.78;;;10.50;99.90;;;;;;5054785;28;20033;-90
2022/05/15 04:02:05;;;;;;;17.65;5.28;;;10.50;99.90;;;;;;5037621;28;20045;-90
2022/05/15 04:04:31;;;;;;;19.88;5.50;;;10.50;99.90;;;;;;5053924;28;20524;-90
2022/05/15 04:06:57;;;;;;;20.20;6.25;;;10.50;99.90;;;;;;5055218;28;20032;-89
2022/05/15 04:09:23;;;;;;;16.83;5.18;;;10.40;99.90;;;;;;5053809;28;20033;-89
2022/05/15 04:11:49;;;;;;;17.30;4.60;;;10.40;99.90;;;;;;5054388;28;20093;-90
2022/05/15 04:14:14;;;;;;;18.90;5.13;;;10.40;99.90;;;;;;5053495;28;20123;-90
2022/05/15 04:16:40;;;;;;;18.55;5.78;;;10.40;99.90;;;;;;5053042;28;20036;-90
2022/05/15 04:19:06;;;;;;;16.58;5.65;;;10.30;99.90;;;;;;5038166;28;20044;-90
2022/05/15 04:21:37;;;;;;;19.63;5.63;;;10.30;99.90;;;;;;5054003;28;20103;-90
2022/05/15 04:24:04;;;;;;;21.20;5.88;;;10.30;99.90;;;;;;5053596;28;20032;-90
2022/05/15 04:26:30;;;;;;;21.55;5.80;;;10.30;99.90;;;;;;5053511;28;20387;-90
2022/05/15 04:28:56;;;;;;;17.55;6.22;;;10.20;99.90;;;;;;5061734;28;20048;-90
2022/05/15 04:31:21;;;;;;;17.92;5.40;;;10.20;99.90;;;;;;5054726;28;20037;-90
2022/05/15 04:33:47;;;;;;;18.85;6.45;;;10.20;99.90;;;;;;5036582;28;20040;-90
2022/05/15 04:36:12;;;;;;;17.23;5.80;;;10.20;99.90;;;;;;5054128;28;20048;-90
2022/05/15 04:38:38;;;;;;;22.48;5.72;;;10.20;99.90;;;;;;5036377;28;20036;-90
2022/05/15 04:41:03;;;;;;;22.13;6.43;;;10.20;99.90;;;;;;5036773;28;20036;-90
2022/05/15 04:43:29;;;;;;;18.13;6.18;;;10.30;99.90;;;;;;5054002;28;20060;-90
2022/05/15 04:45:55;;;;;;;16.58;5.47;;;10.30;99.90;;;;;;5053611;28;20044;-90
2022/05/15 04:48:20;;;;;;;18.92;5.88;;;10.30;99.90;;;;;;5054170;28;20032;-89
2022/05/15 04:50:46;;;;;;;18.70;5.10;;;10.30;99.90;;;;;;5053510;28;20091;-90
2022/05/15 04:53:11;;;;;;;16.65;4.90;;;10.40;99.90;;;;;;5053784;28;20044;-89
2022/05/15 04:55:37;;;;;;;15.70;5.47;;;10.40;99.90;;;;;;5036161;28;20044;-90
2022/05/15 04:58:03;;;;;;;16.40;5.00;;;10.40;99.90;;;;;;5053646;28;20129;-90
2022/05/15 05:00:28;;;;;;;19.20;5.63;;;10.50;99.90;;;;;;5053322;28;20040;-90
2022/05/15 05:02:54;;;;;;;23.27;6.50;;;10.50;99.90;;;;;;5070945;28;20100;-90
2022/05/15 05:05:20;;;;;;;21.52;6.07;;;10.60;99.90;;;;;;5053568;28;20072;-90
2022/05/15 05:07:45;;;;;;;17.77;4.60;;;10.70;99.90;;;;;;5053263;28;20028;-89
2022/05/15 05:10:12;;;;;;;16.17;5.03;;;10.80;99.90;;;;;;5053705;28;20098;-90
2022/05/15 05:12:38;;;;;;;22.92;6.15;;;10.90;99.90;;;;;;5036870;28;20062;-90
2022/05/15 05:15:05;;;;;;;20.67;4.97;;;11.00;99.90;;;;;;5051467;28;20044;-90
2022/05/15 05:17:31;;;;;;;20.75;5.63;;;11.00;99.90;;;;;;5036382;28;20032;-89
2022/05/15 05:19:56;;;;;;;23.88;5.03;;;11.10;99.90;;;;;;5052361;28;20460;-90
2022/05/15 05:22:22;;;;;;;19.08;5.05;;;11.20;99.90;;;;;;5052232;28;20452;-90
2022/05/15 05:24:47;;;;;;;21.95;5.60;;;11.30;99.90;;;;;;5052734;28;20079;-90
2022/05/15 05:27:13;;;;;;;19.08;5.50;;;11.40;99.90;;;;;;5036331;28;20547;-90
2022/05/15 05:29:39;;;;;;;20.08;4.88;;;11.50;99.90;;;;;;5053641;28;20037;-90
2022/05/15 05:32:05;;;;;;;18.58;5.05;;;11.60;99.90;;;;;;5053149;28;20405;-89
2022/05/15 05:34:30;;;;;;;21.48;7.72;;;11.70;99.90;;;;;;5032687;28;20143;-90
2022/05/15 05:36:56;;;;;;;21.27;6.20;;;11.80;99.90;;;;;;5021703;28;20127;-90
2022/05/15 05:39:22;;;;;;;18.00;4.72;;;11.80;99.90;;;;;;5052866;28;20032;-90
2022/05/15 05:41:47;;;;;;;18.63;5.20;;;11.90;99.90;;;;;;5052441;28;20530;-90
2022/05/15 05:44:13;;;;;;;19.92;5.50;;;12.00;99.90;;;;;;5052457;28;20040;-90
2022/05/15 05:46:39;;;;;;;19.73;6.32;;;12.10;99.90;;;;;;5053282;28;20490;-90
2022/05/15 05:49:05;;;;;;;20.02;7.03;;;12.10;99.90;;;;;;5052828;28;20544;-90
2022/05/15 05:51:30;;;;;;;17.60;5.35;;;12.30;99.90;;;;;;5036266;28;20058;-90
2022/05/15 05:53:56;;;;;;;19.73;7.65;;;12.40;99.90;;;;;;5053159;28;20880;-91
2022/05/15 05:56:22;;;;;;;22.42;5.80;;;12.50;99.90;;;;;;5035152;28;20123;-90
2022/05/15 05:58:47;;;;;;;19.90;5.10;;;12.60;99.90;;;;;;5036463;28;20044;-90
2022/05/15 06:01:13;;;;;;;20.88;5.28;;;12.60;99.90;;;;;;5052448;28;20059;-90
2022/05/15 06:06:23;;;;;;;20.20;5.15;;;12.80;99.90;;;;;;5052321;28;20482;-90
2022/05/15 06:08:49;;;;;;;21.52;5.57;;;12.90;99.90;;;;;;5051726;28;20037;-89
2022/05/15 06:11:14;;;;;;;18.55;7.30;;;13.00;99.90;;;;;;5036267;28;20076;-90
2022/05/15 06:13:40;;;;;;;16.33;5.20;;;13.10;99.90;;;;;;5052602;28;20485;-90
2022/05/15 06:16:07;;;;;;;16.55;5.30;;;13.20;99.90;;;;;;5039556;28;20395;-89
2022/05/15 06:18:33;;;;;;;18.35;6.38;;;13.30;99.90;;;;;;5052162;28;20097;-90
2022/05/15 06:20:59;;;;;;;16.00;4.97;;;13.40;99.90;;;;;;5056678;28;20040;-90
2022/05/15 06:23:24;;;;;;;18.90;4.68;;;13.40;99.90;;;;;;5052667;28;20033;-90
2022/05/15 06:25:50;;;;;;;20.83;5.38;;;13.50;99.90;;;;;;5051645;28;20044;-90
2022/05/15 06:28:16;;;;;;;17.20;6.13;;;13.60;99.90;;;;;;5051873;28;20072;-90
2022/05/15 06:30:41;;;;;;;16.67;5.65;;;13.70;99.90;;;;;;5051954;28;20041;-91
2022/05/15 06:33:07;;;;;;;16.38;4.88;;;13.80;99.90;;;;;;5035120;28;20062;-90
2022/05/15 06:35:33;;;;;;;18.17;6.45;;;13.90;99.90;;;;;;5051879;28;20123;-90
2022/05/15 06:38:03;;;;;;;19.23;5.78;;;14.00;99.90;;;;;;5054609;28;20075;-91
2022/05/15 06:40:29;;;;;;;15.82;4.68;;;14.10;99.90;;;;;;5055543;28;20493;-90
2022/05/15 06:42:57;;;;;;;16.75;5.72;;;14.20;99.90;;;;;;5039743;28;20041;-90
2022/05/15 06:45:23;;;;;;;15.40;6.03;;;14.30;99.90;;;;;;5038957;28;20042;-90
2022/05/15 06:47:49;;;;;;;17.35;5.55;;;14.50;99.90;;;;;;5039349;28;20048;-90
2022/05/15 06:50:14;;;;;;;13.65;3.88;;;14.60;99.90;;;;;;5055881;28;20234;-89
2022/05/15 06:52:40;;;;;;;14.68;4.05;;;14.60;99.90;;;;;;5056155;28;20119;-90
2022/05/15 06:55:09;;;;;;;15.95;4.15;;;14.70;99.90;;;;;;5055459;28;20036;-90
2022/05/15 06:57:35;;;;;;;14.80;4.80;;;14.80;99.90;;;;;;5055487;28;20071;-91
2022/05/15 07:00:25;;;;;;;17.63;5.32;;;14.90;99.90;;;;;;5055322;28;20052;-91
2022/05/15 07:02:51;;;;;;;14.73;4.82;;;15.00;99.90;;;;;;5038873;28;20052;-91
2022/05/15 07:05:23;;;;;;;14.05;5.45;;;15.10;99.90;;;;;;5039078;28;20032;-91
2022/05/15 07:07:51;;;;;;;15.95;4.85;;;15.20;99.90;;;;;;5038931;28;20043;-91
2022/05/15 07:10:18;;;;;;;19.38;6.43;;;15.30;99.90;;;;;;5038870;28;20549;-91
2022/05/15 07:12:43;;;;;;;15.45;5.03;;;15.40;99.90;;;;;;5039290;28;20047;-91
2022/05/15 07:15:09;;;;;;;15.60;5.10;;;15.50;99.90;;;;;;5037879;28;20041;-91
2022/05/15 07:17:35;;;;;;;18.58;5.22;;;15.60;99.90;;;;;;5054827;28;20045;-91
2022/05/15 07:20:01;;;;;;;17.17;4.80;;;15.70;99.90;;;;;;5054198;28;20060;-91
2022/05/15 07:22:26;;;;;;;15.68;4.97;;;15.80;99.90;;;;;;5039076;28;20037;-91
2022/05/15 07:24:52;;;;;;;15.50;4.47;;;15.90;99.90;;;;;;5054799;28;20094;-91
2022/05/15 07:27:17;;;;;;;15.70;4.32;;;16.00;99.90;;;;;;5055354;28;20032;-90
2022/05/15 07:29:43;;;;;;;15.60;4.82;;;16.10;99.90;;;;;;5054982;28;20029;-90
2022/05/15 07:32:10;;;;;;;15.15;5.07;;;16.20;99.90;;;;;;5037409;28;20204;-90
2022/05/15 07:34:40;;;;;;;17.55;5.55;;;16.30;99.90;;;;;;5047195;28;20079;-90
2022/05/15 07:37:06;;;;;;;15.68;4.63;;;16.40;99.90;;;;;;5054589;28;20115;-91
2022/05/15 07:39:31;;;;;;;15.27;5.25;;;16.50;99.90;;;;;;5038419;28;20129;-91
2022/05/15 07:41:57;;;;;;;15.63;5.15;;;16.60;99.90;;;;;;5053731;28;20051;-91
2022/05/15 07:44:24;;;;;;;15.45;5.07;;;16.70;99.90;;;;;;5054991;28;20048;-90
2022/05/15 07:49:25;;;;;;;18.70;5.35;;;16.90;99.90;;;;;;1506770;26;20051;-96
2022/05/15 07:51:51;;;;;;;20.80;5.05;;;17.00;99.90;;;;;;5072801;28;20031;-96
2022/05/15 07:54:18;;;;;;;17.83;4.97;;;17.10;99.90;;;;;;5083008;28;20038;-95
2022/05/15 07:56:44;;;;;;;16.15;4.85;;;17.10;99.70;;;;;;5100565;28;20024;-95
2022/05/15 07:59:17;;;;;;;16.90;5.22;;;17.20;99.00;;;;;;5083079;28;20038;-96
2022/05/15 08:01:42;;;;;;;19.27;5.15;;;17.30;98.90;;;;;;5083374;28;20020;-96
2022/05/15 08:04:09;;;;;;;16.45;5.60;;;17.40;99.20;;;;;;5079384;22;20147;-83
2022/05/15 08:09:18;;;;;;;18.60;4.90;;;17.60;97.30;;;;;;5030385;28;20045;-83
2022/05/15 08:11:44;;;;;;;16.98;5.07;;;17.70;96.40;;;;;;5033542;28;20028;-82
2022/05/15 08:14:10;;;;;;;18.85;6.03;;;17.70;96.20;;;;;;5051978;28;20048;-83
2022/05/15 08:16:38;;;;;;;19.83;5.32;;;17.80;96.00;;;;;;5016434;28;20593;-83
2022/05/15 08:24:34;;;;;;;14.85;4.53;;;18.10;94.50;;;;;;5034908;28;20052;-83
2022/05/15 08:27:00;;;;;;;15.20;4.63;;;18.20;94.80;;;;;;5032873;28;20056;-83
2022/05/15 08:29:26;;;;;;;17.85;5.35;;;18.30;93.90;;;;;;5035073;28;20036;-83
2022/05/15 08:31:51;;;;;;;19.08;6.68;;;18.40;93.70;;;;;;5044689;28;20213;-83
2022/05/15 08:34:17;;;;;;;17.55;5.28;;;18.50;93.20;;;;;;5033160;28;20037;-83
2022/05/15 08:36:44;;;;;;;18.38;5.18;;;18.60;92.30;;;;;;5016202;28;21392;-83
2022/05/15 08:39:11;;;;;;;19.08;5.10;;;18.70;91.60;;;;;;5032133;28;20087;-83
2022/05/15 08:41:54;;;;;;;16.15;5.20;;;18.80;90.50;;;;;;5049686;28;20081;-83
2022/05/15 08:44:33;;;;;;;17.48;5.50;;;18.90;91.40;;;;;;5035791;28;20048;-83
2022/05/15 08:47:15;;;;;;;19.98;5.35;;;19.00;90.00;;;;;;5033556;28;20041;-84
2022/05/15 08:49:57;;;;;;;19.80;5.15;;;19.10;89.70;;;;;;5016519;28;20083;-83
2022/05/15 08:52:53;;;;;;;20.80;5.47;;;19.10;88.20;;;;;;5016323;28;20068;-83
2022/05/15 08:55:31;;;;;;;15.25;5.25;;;19.20;89.20;;;;;;5033436;28;20041;-84
2022/05/15 08:58:05;;;;;;;17.35;5.78;;;19.30;86.80;;;;;;5041121;28;20436;-83
2022/05/15 09:00:32;;;;;;;17.85;5.05;;;19.40;84.30;;;;;;5018016;28;20037;-83
2022/05/15 09:03:27;;;;;;;14.88;4.80;;;19.40;86.40;;;;;;5014445;28;20520;-83
2022/05/15 09:06:37;;;;;;;18.00;4.82;;;19.50;88.00;;;;;;5013521;28;20037;-84
2022/05/15 09:09:08;;;;;;;18.20;5.70;;;19.60;84.90;;;;;;4991688;28;20182;-83
2022/05/15 09:11:37;;;;;;;16.10;5.20;;;19.70;82.20;;;;;;4991409;28;20520;-83
2022/05/15 09:14:08;;;;;;;18.02;4.85;;;19.80;83.20;;;;;;5003289;28;20034;-84
2022/05/15 09:16:36;;;;;;;18.85;6.38;;;19.90;82.20;;;;;;4979721;28;20069;-84
2022/05/15 09:19:03;;;;;;;16.42;4.85;;;20.00;85.50;;;;;;4992988;28;20084;-82
2022/05/15 09:21:28;;;;;;;16.45;4.90;;;20.10;81.50;;;;;;4993083;28;20495;-84
2022/05/15 09:23:56;;;;;;;15.57;5.13;;;20.20;79.90;;;;;;4993289;28;20037;-84
2022/05/15 09:26:40;;;;;;;20.58;5.55;;;20.30;79.90;;;;;;5010561;28;20529;-84
2022/05/15 09:29:14;;;;;;;15.27;4.65;;;20.40;79.10;;;;;;5002088;28;20037;-84
2022/05/15 09:31:42;;;;;;;18.27;5.32;;;20.50;76.20;;;;;;5003581;28;20041;-84
2022/05/15 09:34:16;;;;;;;17.38;5.47;;;20.50;75.00;;;;;;4988363;28;20069;-84
2022/05/15 09:36:44;;;;;;;16.60;5.05;;;20.60;76.50;;;;;;5001327;28;20041;-84
2022/05/15 09:39:18;;;;;;;16.63;4.95;;;20.80;74.00;;;;;;4991071;28;20068;-84
2022/05/15 09:44:40;;;;;;;16.15;5.30;;;20.90;71.00;;;;;;5023526;28;20053;-84
2022/05/15 09:47:18;;;;;;;21.55;6.10;;;21.00;72.60;;;;;;5017190;28;20037;-84
2022/05/15 09:49:43;;;;;;;20.05;5.10;;;21.10;73.80;;;;;;5032141;28;20033;-83
2022/05/15 09:52:18;;;;;;;18.90;5.65;;;21.20;71.20;;;;;;5032350;28;20029;-84
2022/05/15 09:54:46;;;;;;;17.08;5.32;;;21.30;70.20;;;;;;5015020;28;20040;-84
2022/05/15 09:57:22;;;;;;;16.80;5.18;;;21.40;68.90;;;;;;5031299;28;20082;-83
2022/05/15 10:00:11;;;;;;;17.83;5.20;;;21.50;68.90;;;;;;5013959;28;20060;-84
2022/05/15 10:02:42;;;;;;;17.75;5.45;;;21.60;67.70;;;;;;5014946;28;20055;-84
2022/05/15 10:05:19;;;;;;;16.02;5.00;;;21.70;68.00;;;;;;5014861;28;20037;-84
2022/05/15 10:08:02;;;;;;;19.95;5.30;;;21.80;64.50;;;;;;5011880;28;20045;-84
2022/05/15 10:10:31;;;;;;;17.88;4.75;;;21.80;64.80;;;;;;5012111;28;20144;-84
2022/05/15 10:13:04;;;;;;;21.13;5.35;;;21.90;64.90;;;;;;5035521;28;20114;-84
2022/05/15 10:15:40;;;;;;;15.30;4.68;;;22.00;63.80;;;;;;5018315;28;20045;-84
2022/05/15 10:18:10;;;;;;;16.77;5.50;;;22.10;63.00;;;;;;5034151;28;20073;-84
2022/05/15 10:20:39;;;;;;;18.63;5.40;;;22.20;62.90;;;;;;5018815;28;20041;-84
2022/05/15 10:23:18;;;;;;;16.23;4.85;;;22.20;60.60;;;;;;5035682;28;20502;-84
2022/05/15 10:25:59;;;;;;;16.42;5.05;;;22.20;59.90;;;;;;5034439;28;20151;-84
2022/05/15 10:28:27;;;;;;;17.58;5.13;;;22.20;60.90;;;;;;5018879;28;20044;-84
2022/05/15 10:31:10;;;;;;;16.95;4.72;;;22.40;61.80;;;;;;5018873;28;20040;-84
2022/05/15 10:33:41;;;;;;;;;;;22.50;62.50;;;;;;5036889;28;20497;-84
2022/05/15 10:36:32;;;;;;;14.27;4.25;;;22.60;62.00;;;;;;5035602;28;19917;-84
2022/05/15 10:39:04;;;;;;;16.08;4.90;;;22.60;61.00;;;;;;5035416;28;20063;-84
2022/05/15 10:41:51;;;;;;;16.70;4.43;;;22.70;61.30;;;;;;5035406;28;20087;-84
2022/05/15 10:44:23;;;;;;;16.35;5.00;;;22.70;60.80;;;;;;5018663;28;20413;-84
2022/05/15 10:46:56;;;;;;;14.90;4.95;;;22.80;59.90;;;;;;5034851;28;20502;-84
2022/05/15 10:49:58;;;;;;;15.68;4.80;;;22.90;58.30;;;;;;5035372;28;20116;-84
2022/05/15 10:52:51;;;;;;;14.50;4.20;;;23.10;57.60;;;;;;5035759;28;20048;-84
2022/05/15 10:58:27;;;;;;;17.25;4.78;;;23.20;57.10;;;;;;5034576;28;20072;-84
2022/05/15 11:01:29;;;;;;;17.65;5.30;;;23.40;57.80;;;;;;5034453;28;20162;-84
2022/05/15 11:04:17;;;;;;;18.45;4.68;;;23.50;56.60;;;;;;5018866;28;20071;-84
2022/05/15 11:07:00;;;;;;;17.30;5.35;;;23.60;55.70;;;;;;5018203;28;20548;-85
2022/05/15 11:09:35;;;;;;;16.00;5.35;;;23.70;55.10;;;;;;5018330;28;20087;-85
2022/05/15 11:12:45;;;;;;;16.00;4.55;;;23.70;55.70;;;;;;5035802;28;20049;-85
2022/05/15 11:15:20;;;;;;;15.95;4.55;;;23.80;55.50;;;;;;5034963;28;20401;-84
2022/05/15 11:18:05;;;;;;;18.60;5.35;;;23.90;54.30;;;;;;5034321;28;20033;-85
2022/05/15 11:20:40;;;;;;;17.52;4.68;;;24.00;54.10;;;;;;5017418;28;20595;-85
2022/05/15 11:23:13;;;;;;;14.85;4.25;;;24.10;55.20;;;;;;5034547;28;20174;-85
2022/05/15 11:25:50;;;;;;;13.95;4.22;;;24.20;54.00;;;;;;5034718;28;20033;-85
2022/05/15 11:28:31;;;;;;;17.63;4.78;;;24.40;53.60;;;;;;5034031;28;20041;-85
2022/05/15 11:31:09;;;;;;;14.52;4.55;;;24.40;53.30;;;;;;5034840;28;20033;-85
2022/05/15 11:33:44;;;;;;;17.30;4.78;;;24.40;52.70;;;;;;5018631;28;20494;-85
2022/05/15 11:36:12;;;;;;;16.55;4.53;;;24.50;54.30;;;;;;5034898;28;20509;-85
2022/05/15 11:38:52;;;;;;;17.27;4.40;;;24.70;53.30;;;;;;5033244;28;20048;-85
2022/05/15 11:41:36;;;;;;;14.45;4.28;;;24.80;51.00;;;;;;5034789;28;20131;-85
2022/05/15 11:44:21;;;;;;;14.02;3.97;;;24.90;50.90;;;;;;5034166;28;20516;-84
2022/05/15 11:46:47;;;;;;;16.52;4.57;;;24.90;49.90;;;;;;5018128;28;20037;-85
2022/05/15 11:49:22;;;;;;;13.43;3.92;;;24.90;49.40;;;;;;5034123;28;20501;-85
2022/05/15 11:52:16;;;;;;;16.10;7.45;;;24.90;48.90;;;;;;5034656;28;20041;-85
2022/05/15 11:54:47;;;;;;;15.25;4.32;;;25.00;49.50;;;;;;5032465;28;20452;-85
2022/05/15 11:57:48;;;;;;;15.13;4.18;;;25.00;49.20;;;;;;5031605;28;20057;-85
2022/05/15 12:00:24;;;;;;;13.52;4.15;;;25.20;49.10;;;;;;5034127;28;20049;-85
2022/05/15 12:02:56;;;;;;;14.68;4.20;;;25.40;49.10;;;;;;5017014;28;20211;-84
2022/05/15 12:05:38;;;;;;;13.23;4.38;;;25.60;48.50;;;;;;5017976;28;20408;-85
2022/05/15 12:08:16;;;;;;;13.85;4.05;;;25.60;47.40;;;;;;5031296;28;20040;-85
2022/05/15 12:10:42;;;;;;;15.32;4.38;;;25.60;47.20;;;;;;5033248;28;20194;-85
2022/05/15 12:13:28;;;;;;;11.88;3.63;;;25.60;47.60;;;;;;5017347;28;20593;-85
2022/05/15 12:16:18;;;;;;;15.70;4.13;;;25.70;46.80;;;;;;5017103;28;20044;-85
2022/05/15 12:18:48;;;;;;;15.13;4.13;;;25.80;46.90;;;;;;5016808;28;20037;-85
2022/05/15 12:21:16;;;;;;;12.98;4.63;;;25.90;47.00;;;;;;5017328;28;20451;-85
2022/05/15 12:26:53;;;;;;;13.85;4.10;;;26.10;45.60;;;;;;5033582;28;20105;-85
2022/05/15 12:29:53;;;;;;;14.35;3.50;;;26.20;45.30;;;;;;5033263;28;20511;-85
2022/05/15 12:32:52;;;;;;;12.95;3.60;;;26.30;44.70;;;;;;5010693;28;20063;-85
2022/05/15 12:35:24;;;;;;;13.48;4.63;;;26.50;45.00;;;;;;5033221;28;20068;-85
2022/05/15 12:38:04;;;;;;;13.30;3.72;;;26.50;44.50;;;;;;5016329;28;20040;-85
2022/05/15 12:40:52;;;;;;;12.52;4.47;;;26.60;43.80;;;;;;5016161;28;20876;-85
2022/05/15 12:43:38;;;;;;;13.93;3.85;;;26.70;44.30;;;;;;5032851;28;20041;-86
2022/05/15 12:46:04;;;;;;;13.23;3.45;;;26.70;42.90;;;;;;5033569;28;20476;-86
2022/05/15 12:48:36;;;;;;;16.25;4.55;;;26.70;43.00;;;;;;5032288;28;20248;-85
2022/05/15 12:51:09;;;;;;;17.77;3.83;;;26.80;41.60;;;;;;5016891;28;20045;-85
2022/05/15 12:53:49;;;;;;;13.38;4.20;;;26.60;41.10;;;;;;5033019;28;20044;-85
2022/05/15 12:56:30;;;;;;;14.57;3.35;;;26.80;42.40;;;;;;5049785;28;20102;-85
2022/05/15 12:59:06;;;;;;;13.77;3.47;;;26.90;42.30;;;;;;5032371;28;20041;-85
2022/05/15 13:01:32;;;;;;;14.85;3.90;;;27.10;42.90;;;;;;5031706;28;20036;-85
2022/05/15 13:04:00;;;;;;;14.70;3.80;;;27.30;42.90;;;;;;5033161;28;20079;-85
2022/05/15 13:06:38;;;;;;;12.77;3.72;;;27.40;42.70;;;;;;5032995;28;20044;-85
2022/05/15 13:09:07;;;;;;;13.18;3.88;;;27.40;42.70;;;;;;5032460;28;20072;-85
2022/05/15 13:11:48;;;;;;;12.02;3.95;;;27.50;42.90;;;;;;5033065;28;20568;-85
2022/05/15 13:14:21;;;;;;;13.27;3.37;;;27.60;42.90;;;;;;5029335;28;20049;-85
2022/05/15 13:16:51;;;;;;;10.85;3.55;;;27.70;42.40;;;;;;5031729;28;20124;-85